Time;durP1;ratioP1;P1;durP2;ratioP2;P2;SDS_P1;SDS_P2;PMS_P1;PMS_P2;Temp;Humidity;BMP_temperature;BMP_pressure;BME280_temperature;BME280_humidity;BME280_pressure;Samples;Min_cycle;Max_cycle;Signal;HPM_P1;HPM_P2
2023/01/27 00:00:40;;;;;;;34.45;13.98;;;;;;;;;;5040253;28;20124;-68
2023/01/27 00:03:05;;;;;;;26.65;11.73;;;;;;;;;;5042332;28;20052;-68
2023/01/27 00:05:31;;;;;;;30.58;12.55;;;;;;;;;;5042202;28;20048;-70
2023/01/27 00:07:57;;;;;;;25.75;11.30;;;;;;;;;;5042461;28;20063;-67
2023/01/27 00:10:22;;;;;;;27.15;11.23;;;;;;;;;;5041127;28;20124;-70
2023/01/27 00:15:33;;;;;;;23.08;11.20;;;;;;;;;;5042155;28;20987;-70
2023/01/27 00:17:59;;;;;;;16.13;8.70;;;;;;;;;;5042197;28;20053;-68
2023/01/27 00:26:00;;;;;;;20.30;9.50;;;;;;;;;;5042344;28;20119;-69
2023/01/27 00:28:30;;;;;;;18.08;8.52;;;;;;;;;;5041270;28;20436;-69
2023/01/27 00:30:55;;;;;;;16.30;8.43;;;;;;;;;;5041585;28;20047;-68
2023/01/27 00:33:24;;;;;;;15.27;8.00;;;;;;;;;;5039848;28;20080;-68
2023/01/27 00:36:03;;;;;;;20.58;8.55;;;;;;;;;;5040583;28;20493;-68
2023/01/27 00:38:31;;;;;;;14.68;6.97;;;;;;;;;;5041673;28;20457;-68
2023/01/27 00:41:18;;;;;;;13.85;7.93;;;;;;;;;;5041159;28;20045;-68
2023/01/27 00:43:54;;;;;;;18.25;8.48;;;;;;;;;;5056018;28;20052;-68
2023/01/27 00:46:23;;;;;;;16.77;8.65;;;;;;;;;;5040054;28;20095;-69
2023/01/27 00:48:50;;;;;;;18.52;8.50;;;;;;;;;;5040977;28;20052;-68
2023/01/27 00:51:16;;;;;;;13.88;7.82;;;;;;;;;;5039443;28;20063;-70
2023/01/27 00:53:42;;;;;;;15.13;7.60;;;;;;;;;;5040269;28;20032;-71
2023/01/27 00:56:08;;;;;;;15.93;8.00;;;;;;;;;;5041045;28;20049;-70
2023/01/27 00:58:33;;;;;;;13.35;7.88;;;;;;;;;;5040841;28;20053;-68
2023/01/27 01:01:02;;;;;;;15.68;8.45;;;;;;;;;;5056387;28;20049;-67
2023/01/27 01:03:32;;;;;;;15.30;8.27;;;;;;;;;;5040451;28;20504;-67
2023/01/27 01:05:59;;;;;;;17.73;8.18;;;;;;;;;;5040811;28;20047;-66
2023/01/27 01:08:25;;;;;;;15.25;7.90;;;;;;;;;;5037633;28;20402;-68
2023/01/27 01:10:51;;;;;;;16.33;8.27;;;;;;;;;;5054336;28;20518;-68
2023/01/27 01:13:17;;;;;;;19.45;8.10;;;;;;;;;;5039163;28;20092;-67
2023/01/27 01:15:43;;;;;;;14.38;8.07;;;;;;;;;;5039702;28;20065;-67
2023/01/27 01:18:09;;;;;;;16.00;7.57;;;;;;;;;;5038717;28;20091;-67
2023/01/27 01:20:37;;;;;;;16.52;8.43;;;;;;;;;;5038837;28;20048;-67
2023/01/27 01:23:03;;;;;;;17.30;8.95;;;;;;;;;;5040270;28;20128;-67
2023/01/27 01:25:29;;;;;;;16.90;9.30;;;;;;;;;;5041359;28;20516;-68
2023/01/27 01:27:55;;;;;;;18.50;9.00;;;;;;;;;;5039782;28;20510;-67
2023/01/27 01:30:20;;;;;;;20.00;8.23;;;;;;;;;;5039761;28;20050;-67
2023/01/27 01:32:46;;;;;;;16.83;8.38;;;;;;;;;;5038866;28;20589;-66
2023/01/27 01:35:12;;;;;;;13.13;6.88;;;;;;;;;;5039581;28;20045;-67
2023/01/27 01:37:39;;;;;;;18.30;9.60;;;;;;;;;;5040793;28;20040;-66
2023/01/27 01:40:05;;;;;;;19.83;10.25;;;;;;;;;;5039290;28;20551;-66
2023/01/27 01:42:49;;;;;;;16.55;9.50;;;;;;;;;;5037902;28;20064;-66
2023/01/27 01:45:30;;;;;;;16.30;9.02;;;;;;;;;;5040804;28;20037;-67
2023/01/27 01:47:58;;;;;;;18.40;9.85;;;;;;;;;;5039600;28;20048;-68
2023/01/27 01:50:24;;;;;;;16.05;9.30;;;;;;;;;;5038229;28;20408;-68
2023/01/27 01:52:50;;;;;;;18.15;9.85;;;;;;;;;;5037848;28;20063;-67
2023/01/27 01:55:15;;;;;;;20.30;10.82;;;;;;;;;;5038924;28;20071;-68
2023/01/27 01:57:42;;;;;;;20.60;10.57;;;;;;;;;;5040841;28;20406;-67
2023/01/27 02:00:09;;;;;;;20.27;10.00;;;;;;;;;;5038474;28;20490;-68
2023/01/27 02:02:45;;;;;;;17.77;9.15;;;;;;;;;;5038891;28;20053;-67
2023/01/27 02:05:18;;;;;;;18.92;10.02;;;;;;;;;;5039790;28;20048;-67
2023/01/27 02:07:53;;;;;;;18.42;10.32;;;;;;;;;;5040564;28;20056;-67
2023/01/27 02:10:22;;;;;;;17.00;9.70;;;;;;;;;;5038401;28;20040;-65
2023/01/27 02:12:48;;;;;;;18.38;9.95;;;;;;;;;;5039698;28;20080;-66
2023/01/27 02:15:14;;;;;;;20.67;10.55;;;;;;;;;;5039529;28;20057;-66
2023/01/27 02:17:39;;;;;;;21.35;10.93;;;;;;;;;;5039015;28;20048;-67
2023/01/27 02:20:17;;;;;;;20.60;11.05;;;;;;;;;;5039565;28;20160;-67
2023/01/27 02:22:52;;;;;;;20.48;10.05;;;;;;;;;;5039842;28;20037;-67
2023/01/27 02:25:34;;;;;;;18.35;10.23;;;;;;;;;;5032553;28;20817;-67
2023/01/27 02:28:04;;;;;;;18.60;10.45;;;;;;;;;;5040057;28;20071;-67
2023/01/27 02:30:30;;;;;;;18.13;10.68;;;;;;;;;;5038692;28;20045;-68
2023/01/27 02:32:56;;;;;;;21.52;10.32;;;;;;;;;;5038494;28;20059;-67
2023/01/27 02:35:33;;;;;;;19.77;10.48;;;;;;;;;;5038765;28;20084;-67
2023/01/27 02:37:59;;;;;;;19.08;10.43;;;;;;;;;;5038012;28;20114;-67
2023/01/27 02:40:28;;;;;;;25.02;10.57;;;;;;;;;;5038845;28;20142;-68
2023/01/27 02:42:56;;;;;;;21.65;11.32;;;;;;;;;;5043788;28;20060;-67
2023/01/27 02:45:21;;;;;;;22.05;10.93;;;;;;;;;;5042618;28;20049;-68
2023/01/27 02:47:47;;;;;;;20.50;10.93;;;;;;;;;;5041595;28;20521;-68
2023/01/27 02:50:13;;;;;;;21.30;11.00;;;;;;;;;;5043437;28;20422;-67
2023/01/27 02:52:39;;;;;;;19.50;10.55;;;;;;;;;;5041834;28;20041;-67
2023/01/27 02:55:05;;;;;;;22.42;12.15;;;;;;;;;;5042786;28;20425;-66
2023/01/27 02:57:31;;;;;;;21.42;11.50;;;;;;;;;;5044161;28;20041;-67
2023/01/27 03:00:18;;;;;;;21.48;11.35;;;;;;;;;;5040785;28;20460;-68
2023/01/27 03:02:43;;;;;;;22.27;10.90;;;;;;;;;;5041983;28;20534;-67
2023/01/27 03:05:09;;;;;;;22.45;11.30;;;;;;;;;;5042297;28;20045;-68
2023/01/27 03:07:34;;;;;;;24.25;12.10;;;;;;;;;;5043772;28;20045;-68
2023/01/27 03:10:00;;;;;;;23.33;11.13;;;;;;;;;;5042254;28;20072;-68
2023/01/27 03:12:28;;;;;;;21.52;10.60;;;;;;;;;;5041267;28;20962;-68
2023/01/27 03:20:22;;;;;;;27.15;12.07;;;;;;;;;;5042156;28;20044;-67
2023/01/27 03:22:48;;;;;;;23.98;11.18;;;;;;;;;;5042465;28;20110;-66
2023/01/27 03:25:14;;;;;;;20.90;10.65;;;;;;;;;;5042083;28;20045;-67
2023/01/27 03:27:40;;;;;;;23.80;11.32;;;;;;;;;;5041891;28;20132;-66
2023/01/27 03:30:21;;;;;;;17.00;10.40;;;;;;;;;;5041192;28;20049;-66
2023/01/27 03:32:57;;;;;;;21.75;11.45;;;;;;;;;;4991704;28;20048;-67
2023/01/27 03:35:48;;;;;;;13.00;6.37;;;;;;;;;;5040936;28;20052;-66
2023/01/27 03:46:31;;;;;;;11.73;6.32;;;;;;;;;;5040862;28;20060;-68
2023/01/27 03:48:58;;;;;;;11.45;4.82;;;;;;;;;;5043192;28;20151;-67
2023/01/27 03:51:25;;;;;;;15.68;6.72;;;;;;;;;;5041919;28;20502;-67
2023/01/27 03:53:51;;;;;;;21.85;8.93;;;;;;;;;;5042411;28;20052;-67
2023/01/27 03:56:18;;;;;;;17.30;8.32;;;;;;;;;;5042723;28;20056;-67
2023/01/27 03:58:43;;;;;;;15.65;7.85;;;;;;;;;;5042361;28;20427;-67
2023/01/27 04:01:15;;;;;;;18.50;7.78;;;;;;;;;;5042142;28;20052;-67
2023/01/27 04:09:12;;;;;;;14.38;7.68;;;;;;;;;;5042406;28;20044;-66
2023/01/27 04:14:25;;;;;;;17.95;7.43;;;;;;;;;;5042539;28;20710;-67
2023/01/27 04:16:53;;;;;;;15.73;7.60;;;;;;;;;;5039665;28;20052;-66
2023/01/27 04:19:19;;;;;;;14.40;7.88;;;;;;;;;;5042742;28;20494;-68
2023/01/27 04:21:45;;;;;;;18.42;8.82;;;;;;;;;;5041859;28;20063;-66
2023/01/27 04:24:23;;;;;;;19.30;6.13;;;;;;;;;;5042320;28;20541;-67
2023/01/27 04:26:54;;;;;;;20.15;7.45;;;;;;;;;;5040161;28;20041;-66
2023/01/27 04:29:22;;;;;;;6.53;4.10;;;;;;;;;;5056937;28;20040;-66
2023/01/27 04:31:48;;;;;;;14.20;7.30;;;;;;;;;;5041709;28;20101;-68
2023/01/27 04:34:13;;;;;;;18.63;8.98;;;;;;;;;;5041008;28;20452;-67
2023/01/27 04:36:39;;;;;;;16.27;8.35;;;;;;;;;;5041463;28;20040;-68
2023/01/27 04:39:05;;;;;;;11.93;6.32;;;;;;;;;;5041370;28;20049;-68
2023/01/27 04:41:32;;;;;;;14.63;7.38;;;;;;;;;;5041365;28;20801;-68
2023/01/27 04:43:57;;;;;;;11.30;7.40;;;;;;;;;;5042154;28;20048;-67
2023/01/27 04:46:23;;;;;;;19.75;8.48;;;;;;;;;;5041391;28;20484;-68
2023/01/27 04:48:48;;;;;;;14.05;7.20;;;;;;;;;;5039122;28;20064;-68
2023/01/27 04:51:14;;;;;;;19.23;8.13;;;;;;;;;;5040861;28;20049;-68
2023/01/27 04:53:39;;;;;;;13.02;7.30;;;;;;;;;;5041842;28;20056;-68
2023/01/27 04:56:13;;;;;;;13.40;6.57;;;;;;;;;;5041698;28;20116;-67
2023/01/27 04:58:38;;;;;;;13.38;8.02;;;;;;;;;;5041033;28;20136;-67
2023/01/27 05:01:03;;;;;;;15.07;7.68;;;;;;;;;;5039815;28;20137;-68
2023/01/27 05:03:29;;;;;;;17.17;8.48;;;;;;;;;;5041048;28;20379;-68
2023/01/27 05:05:54;;;;;;;14.05;7.53;;;;;;;;;;5041391;28;20494;-68
2023/01/27 05:08:19;;;;;;;15.18;7.03;;;;;;;;;;5041547;28;20045;-68
2023/01/27 05:10:45;;;;;;;17.17;8.43;;;;;;;;;;5039489;28;22391;-70
2023/01/27 05:13:11;;;;;;;14.85;7.53;;;;;;;;;;5041468;28;20143;-69
2023/01/27 05:15:36;;;;;;;17.15;8.05;;;;;;;;;;5040697;28;20041;-68
2023/01/27 05:18:02;;;;;;;16.63;8.75;;;;;;;;;;5039200;28;20052;-68
2023/01/27 05:20:27;;;;;;;19.02;7.82;;;;;;;;;;4954447;28;20041;-69
2023/01/27 05:23:33;;;;;;;16.77;8.45;;;;;;;;;;5009410;28;20802;-69
2023/01/27 05:25:42;;;;;;;17.50;8.75;;;;;;;;;;5030806;28;20476;-69
2023/01/27 05:28:08;;;;;;;23.30;9.35;;;;;;;;;;5020599;28;20120;-67
2023/01/27 05:30:33;;;;;;;23.75;10.32;;;;;;;;;;5020621;28;20047;-69
2023/01/27 05:32:59;;;;;;;22.15;10.07;;;;;;;;;;5040021;28;20386;-70
2023/01/27 05:35:24;;;;;;;25.90;10.35;;;;;;;;;;5040536;28;20131;-70
2023/01/27 05:37:50;;;;;;;28.63;11.05;;;;;;;;;;5040957;28;20090;-70
2023/01/27 05:40:16;;;;;;;19.75;9.48;;;;;;;;;;5038765;28;20362;-70
2023/01/27 05:42:41;;;;;;;21.48;8.90;;;;;;;;;;5037335;28;20856;-70
2023/01/27 05:45:07;;;;;;;17.17;8.90;;;;;;;;;;5037997;28;20048;-70
2023/01/27 05:47:33;;;;;;;17.73;7.57;;;;;;;;;;5038561;28;20033;-70
2023/01/27 05:49:58;;;;;;;17.90;8.68;;;;;;;;;;5039265;28;20110;-70
2023/01/27 05:52:24;;;;;;;17.23;8.45;;;;;;;;;;5040292;28;20144;-70
2023/01/27 05:54:50;;;;;;;15.98;7.68;;;;;;;;;;5038381;28;20557;-70
2023/01/27 05:57:15;;;;;;;20.65;8.20;;;;;;;;;;5039832;28;20037;-70
2023/01/27 05:59:41;;;;;;;18.05;8.02;;;;;;;;;;5040248;28;20795;-70
2023/01/27 06:02:06;;;;;;;18.10;8.80;;;;;;;;;;5039640;28;20942;-70
2023/01/27 06:04:32;;;;;;;17.58;7.55;;;;;;;;;;5027199;28;20048;-69
2023/01/27 06:06:57;;;;;;;18.23;9.05;;;;;;;;;;5034492;28;20053;-70
2023/01/27 06:09:23;;;;;;;14.63;7.18;;;;;;;;;;5040081;28;20053;-69
2023/01/27 06:11:48;;;;;;;17.80;8.15;;;;;;;;;;5039130;28;20048;-69
2023/01/27 06:14:13;;;;;;;16.33;7.60;;;;;;;;;;5036274;28;20044;-68
2023/01/27 06:16:39;;;;;;;14.20;6.65;;;;;;;;;;5035047;28;20044;-69
2023/01/27 06:19:04;;;;;;;15.40;6.88;;;;;;;;;;5038762;28;20040;-68
2023/01/27 06:21:30;;;;;;;16.35;7.15;;;;;;;;;;5037470;28;20113;-68
2023/01/27 06:23:56;;;;;;;15.60;7.32;;;;;;;;;;5038741;28;20563;-68
2023/01/27 06:26:22;;;;;;;14.68;7.85;;;;;;;;;;5038472;28;20071;-68
2023/01/27 06:28:47;;;;;;;11.98;6.28;;;;;;;;;;5037608;28;20110;-68
2023/01/27 06:31:16;;;;;;;13.63;6.93;;;;;;;;;;5037471;28;20143;-68
2023/01/27 06:33:42;;;;;;;13.93;6.75;;;;;;;;;;5039128;28;20051;-68
2023/01/27 06:36:11;;;;;;;22.02;9.68;;;;;;;;;;5040324;28;20052;-68
2023/01/27 06:38:36;;;;;;;15.25;8.15;;;;;;;;;;5054233;28;20083;-68
2023/01/27 06:41:03;;;;;;;17.70;7.72;;;;;;;;;;5038760;28;20056;-68
2023/01/27 06:43:28;;;;;;;19.15;8.30;;;;;;;;;;5040338;28;20049;-68
2023/01/27 06:45:56;;;;;;;15.88;7.82;;;;;;;;;;5039845;28;20127;-68
2023/01/27 06:48:22;;;;;;;14.07;7.72;;;;;;;;;;5040073;28;20041;-68
2023/01/27 06:50:47;;;;;;;16.40;6.85;;;;;;;;;;5036644;28;20541;-68
2023/01/27 06:53:12;;;;;;;15.35;6.88;;;;;;;;;;5039856;28;20050;-68
2023/01/27 06:55:40;;;;;;;15.35;7.28;;;;;;;;;;5040178;28;20051;-68
2023/01/27 06:58:12;;;;;;;15.98;7.30;;;;;;;;;;5040029;28;20163;-68
2023/01/27 07:00:39;;;;;;;15.75;7.22;;;;;;;;;;5037302;28;20041;-69
2023/01/27 07:03:05;;;;;;;14.82;7.35;;;;;;;;;;5039177;28;20452;-70
2023/01/27 07:05:33;;;;;;;18.95;7.55;;;;;;;;;;5039889;28;20448;-70
2023/01/27 07:07:59;;;;;;;14.02;7.57;;;;;;;;;;5039744;28;20073;-71
2023/01/27 07:10:24;;;;;;;11.02;6.20;;;;;;;;;;5039025;28;20048;-70
2023/01/27 07:12:50;;;;;;;13.43;6.75;;;;;;;;;;5037764;28;20044;-69
2023/01/27 07:15:15;;;;;;;16.30;6.97;;;;;;;;;;5039801;28;20045;-69
2023/01/27 07:17:41;;;;;;;14.75;6.57;;;;;;;;;;5039806;28;20052;-69
2023/01/27 07:20:08;;;;;;;14.73;8.00;;;;;;;;;;5038826;28;20501;-69
2023/01/27 07:22:34;;;;;;;13.38;6.25;;;;;;;;;;5037606;28;20045;-68
2023/01/27 07:25:00;;;;;;;13.77;6.60;;;;;;;;;;5040059;28;20448;-68
2023/01/27 07:27:25;;;;;;;12.07;5.88;;;;;;;;;;5043012;28;20048;-69
2023/01/27 07:29:51;;;;;;;13.35;6.72;;;;;;;;;;5043240;28;20048;-70
2023/01/27 07:32:16;;;;;;;12.68;6.10;;;;;;;;;;5041893;28;20641;-69
2023/01/27 07:34:42;;;;;;;14.68;6.75;;;;;;;;;;5042083;28;20037;-69
2023/01/27 07:37:07;;;;;;;13.05;6.75;;;;;;;;;;5043253;28;20052;-68
2023/01/27 07:39:35;;;;;;;16.27;7.03;;;;;;;;;;5041631;28;20064;-69
2023/01/27 07:42:01;;;;;;;14.10;7.00;;;;;;;;;;5041137;28;20132;-69
2023/01/27 07:44:27;;;;;;;16.60;7.57;;;;;;;;;;5040641;28;20045;-69
2023/01/27 07:46:53;;;;;;;19.38;7.65;;;;;;;;;;5042772;28;20060;-69
2023/01/27 07:49:18;;;;;;;19.58;7.72;;;;;;;;;;5042859;28;20061;-69
2023/01/27 07:51:44;;;;;;;21.50;8.30;;;;;;;;;;5041540;28;20099;-69
2023/01/27 07:54:09;;;;;;;15.73;6.93;;;;;;;;;;5040104;28;20114;-69
2023/01/27 07:56:35;;;;;;;17.08;7.78;;;;;;;;;;5042008;28;20052;-69
2023/01/27 07:59:01;;;;;;;17.80;7.50;;;;;;;;;;5043241;28;20053;-69
2023/01/27 08:01:26;;;;;;;17.67;7.90;;;;;;;;;;5041669;28;20049;-69
2023/01/27 08:03:52;;;;;;;14.52;6.97;;;;;;;;;;5042980;28;20055;-68
2023/01/27 08:06:17;;;;;;;20.17;9.15;;;;;;;;;;5041474;28;20057;-70
2023/01/27 08:08:43;;;;;;;28.83;12.43;;;;;;;;;;5041914;28;20049;-69
2023/01/27 08:11:12;;;;;;;22.88;10.38;;;;;;;;;;5041337;28;20099;-68
2023/01/27 08:13:38;;;;;;;27.33;10.35;;;;;;;;;;5042703;28;20055;-68
2023/01/27 08:16:07;;;;;;;22.73;10.48;;;;;;;;;;5042444;28;20052;-68
2023/01/27 08:18:33;;;;;;;19.65;9.40;;;;;;;;;;5040502;28;20052;-70
2023/01/27 08:21:00;;;;;;;18.00;8.80;;;;;;;;;;5041045;28;20045;-68
2023/01/27 08:23:25;;;;;;;22.52;9.75;;;;;;;;;;5042354;28;20080;-68
2023/01/27 08:25:52;;;;;;;28.20;12.27;;;;;;;;;;5042567;28;20088;-68
2023/01/27 08:28:19;;;;;;;19.58;9.35;;;;;;;;;;5041560;28;20044;-68
2023/01/27 08:30:45;;;;;;;17.58;8.15;;;;;;;;;;5039895;28;20057;-69
2023/01/27 08:33:11;;;;;;;19.52;8.80;;;;;;;;;;5042455;28;20656;-68
2023/01/27 08:35:37;;;;;;;18.60;8.35;;;;;;;;;;5045096;28;20144;-68
2023/01/27 08:38:04;;;;;;;17.38;7.65;;;;;;;;;;5041637;28;20060;-69
2023/01/27 08:40:30;;;;;;;17.25;7.57;;;;;;;;;;5049393;28;20041;-68
2023/01/27 08:42:55;;;;;;;13.98;6.50;;;;;;;;;;5049604;28;20044;-71
2023/01/27 08:45:21;;;;;;;18.88;8.20;;;;;;;;;;5043764;28;20045;-70
2023/01/27 08:47:46;;;;;;;16.92;7.32;;;;;;;;;;5041720;28;20049;-71
2023/01/27 08:50:12;;;;;;;17.55;7.18;;;;;;;;;;5039958;28;20513;-68
2023/01/27 08:52:37;;;;;;;15.43;7.75;;;;;;;;;;5040665;28;20126;-68
2023/01/27 08:55:03;;;;;;;16.85;7.88;;;;;;;;;;5043099;28;20048;-69
2023/01/27 08:57:31;;;;;;;19.75;9.32;;;;;;;;;;5041918;28;20044;-67
2023/01/27 08:59:57;;;;;;;23.50;10.27;;;;;;;;;;5046406;28;20056;-68
2023/01/27 09:02:23;;;;;;;31.90;11.60;;;;;;;;;;5041868;28;20136;-68
2023/01/27 09:04:49;;;;;;;18.45;9.07;;;;;;;;;;5041111;28;20404;-68
2023/01/27 09:07:15;;;;;;;21.77;10.05;;;;;;;;;;5041720;28;20501;-68
2023/01/27 09:09:40;;;;;;;15.65;8.10;;;;;;;;;;5042249;28;20048;-68
2023/01/27 09:12:06;;;;;;;18.33;8.23;;;;;;;;;;5042818;28;20490;-68
2023/01/27 09:14:32;;;;;;;18.95;9.20;;;;;;;;;;5043970;28;20443;-69
2023/01/27 09:16:57;;;;;;;26.02;12.40;;;;;;;;;;5041172;28;20049;-69
2023/01/27 09:19:23;;;;;;;19.73;9.23;;;;;;;;;;5042717;28;20056;-68
2023/01/27 09:21:48;;;;;;;18.30;8.82;;;;;;;;;;5039181;28;20067;-68
2023/01/27 09:24:16;;;;;;;19.45;9.13;;;;;;;;;;5040292;28;20045;-69
2023/01/27 09:26:42;;;;;;;16.35;8.80;;;;;;;;;;5040619;28;20059;-69
2023/01/27 09:29:08;;;;;;;17.83;8.95;;;;;;;;;;5041221;28;20041;-68
2023/01/27 09:31:33;;;;;;;17.60;8.48;;;;;;;;;;5039431;28;20055;-68
2023/01/27 09:33:59;;;;;;;19.35;8.35;;;;;;;;;;5039154;28;20052;-68
2023/01/27 09:36:26;;;;;;;16.42;8.07;;;;;;;;;;5040719;28;20098;-69
2023/01/27 09:39:01;;;;;;;13.95;8.07;;;;;;;;;;5039876;28;20059;-68
2023/01/27 09:41:37;;;;;;;15.05;7.95;;;;;;;;;;5038755;28;20049;-69
2023/01/27 09:44:30;;;;;;;16.70;9.25;;;;;;;;;;5039265;28;21006;-68
2023/01/27 09:47:22;;;;;;;15.50;7.95;;;;;;;;;;5040248;28;20045;-69
2023/01/27 09:49:47;;;;;;;;;;;;;;;;;;5040617;28;20072;-69
2023/01/27 09:52:34;;;;;;;15.90;7.82;;;;;;;;;;5038811;28;20518;-68
2023/01/27 09:55:43;;;;;;;16.58;7.35;;;;;;;;;;5034415;28;20548;-68
2023/01/27 09:58:21;;;;;;;14.82;7.63;;;;;;;;;;5032857;28;20067;-68
2023/01/27 10:01:08;;;;;;;13.52;6.55;;;;;;;;;;5038378;28;20513;-68
2023/01/27 10:03:57;;;;;;;18.15;7.93;;;;;;;;;;5040610;28;20045;-69
2023/01/27 10:06:41;;;;;;;13.98;7.45;;;;;;;;;;5039317;28;20052;-68
2023/01/27 10:09:41;;;;;;;13.55;6.82;;;;;;;;;;5037372;28;20044;-68
2023/01/27 10:12:13;;;;;;;17.60;8.20;;;;;;;;;;5038786;28;20052;-68
2023/01/27 10:14:57;;;;;;;20.25;9.93;;;;;;;;;;5039969;28;20045;-68
2023/01/27 10:17:48;;;;;;;17.13;9.18;;;;;;;;;;5038216;28;21155;-69
2023/01/27 10:20:25;;;;;;;19.55;9.63;;;;;;;;;;5011098;28;20502;-69
2023/01/27 10:22:57;;;;;;;24.40;9.68;;;;;;;;;;5039110;28;20122;-68
2023/01/27 10:25:29;;;;;;;20.50;8.10;;;;;;;;;;5040599;28;20067;-69
2023/01/27 10:28:02;;;;;;;20.42;8.82;;;;;;;;;;5038014;28;20094;-69
2023/01/27 10:30:36;;;;;;;17.08;8.00;;;;;;;;;;5037733;28;20045;-70
2023/01/27 10:33:13;;;;;;;15.70;7.88;;;;;;;;;;5037673;28;20277;-70
2023/01/27 10:35:52;;;;;;;17.77;9.43;;;;;;;;;;5040490;28;20041;-69
2023/01/27 10:38:55;;;;;;;18.38;8.45;;;;;;;;;;5040285;28;20565;-69
2023/01/27 10:41:47;;;;;;;16.77;8.68;;;;;;;;;;5032706;28;20045;-69
2023/01/27 10:44:34;;;;;;;22.15;9.13;;;;;;;;;;5041661;28;20049;-70
2023/01/27 10:47:26;;;;;;;16.63;8.50;;;;;;;;;;5037604;28;20049;-68
2023/01/27 10:49:57;;;;;;;20.40;9.57;;;;;;;;;;5034180;28;20472;-69
2023/01/27 10:52:37;;;;;;;18.20;8.57;;;;;;;;;;5036832;28;20083;-70
2023/01/27 10:55:41;;;;;;;25.17;10.07;;;;;;;;;;5021398;28;20053;-69
2023/01/27 10:58:19;;;;;;;25.23;9.85;;;;;;;;;;5038299;28;20049;-69
2023/01/27 11:00:47;;;;;;;29.02;11.75;;;;;;;;;;5044793;28;20099;-69
2023/01/27 11:03:32;;;;;;;16.98;8.43;;;;;;;;;;5043210;28;20049;-71
2023/01/27 11:06:11;;;;;;;15.43;8.07;;;;;;;;;;5044013;28;20053;-70
2023/01/27 11:08:40;;;;;;;17.08;8.05;;;;;;;;;;5042235;28;20047;-69
2023/01/27 11:14:31;;;;;;;19.52;8.63;;;;;;;;;;5042987;28;20068;-70
2023/01/27 11:17:09;;;;;;;19.10;9.38;;;;;;;;;;5043484;28;20049;-69
2023/01/27 11:19:59;;;;;;;23.73;10.40;;;;;;;;;;5042814;28;20064;-70
2023/01/27 11:22:36;;;;;;;23.20;10.93;;;;;;;;;;5042165;28;20470;-70
2023/01/27 11:25:30;;;;;;;15.43;8.60;;;;;;;;;;5039849;28;20052;-70
2023/01/27 11:28:09;;;;;;;29.58;11.35;;;;;;;;;;5044026;28;20049;-69
2023/01/27 11:30:59;;;;;;;20.83;8.88;;;;;;;;;;5041155;28;20079;-70
2023/01/27 11:33:51;;;;;;;23.10;10.88;;;;;;;;;;5048065;28;20850;-69
2023/01/27 11:36:16;;;;;;;23.95;11.55;;;;;;;;;;5050304;28;20051;-70
2023/01/27 11:38:42;;;;;;;26.25;11.93;;;;;;;;;;5041511;28;20037;-70
2023/01/27 11:41:08;;;;;;;33.60;11.65;;;;;;;;;;5039950;28;20048;-70
2023/01/27 11:43:35;;;;;;;26.45;10.93;;;;;;;;;;5042842;28;20036;-70
2023/01/27 11:46:05;;;;;;;24.23;10.77;;;;;;;;;;5024659;28;20076;-69
2023/01/27 11:48:45;;;;;;;21.90;9.63;;;;;;;;;;5040673;28;20052;-71
2023/01/27 11:51:19;;;;;;;23.52;10.40;;;;;;;;;;5042603;28;20041;-70
2023/01/27 11:53:49;;;;;;;20.42;9.52;;;;;;;;;;5047818;28;20493;-70
2023/01/27 11:56:18;;;;;;;21.10;10.30;;;;;;;;;;5044663;28;20456;-69
2023/01/27 11:58:55;;;;;;;19.50;8.82;;;;;;;;;;5042854;28;20040;-70
2023/01/27 12:01:33;;;;;;;21.77;10.45;;;;;;;;;;5041536;28;20072;-70
2023/01/27 12:04:17;;;;;;;16.42;7.57;;;;;;;;;;5043653;28;20045;-71
2023/01/27 12:06:52;;;;;;;23.75;9.95;;;;;;;;;;5042976;28;20041;-70
2023/01/27 12:09:39;;;;;;;24.08;10.15;;;;;;;;;;5041945;28;20767;-68
2023/01/27 12:12:13;;;;;;;25.27;10.05;;;;;;;;;;5041408;28;20555;-68
2023/01/27 12:14:52;;;;;;;22.30;9.57;;;;;;;;;;5042151;28;20049;-69
2023/01/27 12:17:40;;;;;;;24.48;9.93;;;;;;;;;;5040100;28;20053;-68
2023/01/27 12:20:24;;;;;;;27.13;11.43;;;;;;;;;;5041120;28;20044;-68
2023/01/27 12:22:53;;;;;;;23.13;10.02;;;;;;;;;;5039179;28;20122;-68
2023/01/27 12:25:26;;;;;;;21.95;9.30;;;;;;;;;;5042112;28;20080;-69
2023/01/27 12:27:57;;;;;;;24.73;9.77;;;;;;;;;;5024119;28;20041;-68
2023/01/27 12:30:27;;;;;;;23.70;10.43;;;;;;;;;;5039794;28;20057;-69
2023/01/27 12:32:53;;;;;;;22.77;9.77;;;;;;;;;;5040560;28;20508;-69
2023/01/27 12:35:39;;;;;;;28.90;11.02;;;;;;;;;;5039968;28;20064;-69
2023/01/27 12:38:12;;;;;;;25.83;10.00;;;;;;;;;;5039267;28;20052;-69
2023/01/27 12:40:40;;;;;;;25.60;10.65;;;;;;;;;;5037006;28;20041;-69
2023/01/27 12:43:11;;;;;;;24.25;10.40;;;;;;;;;;5038608;28;20751;-69
2023/01/27 12:45:40;;;;;;;24.92;9.32;;;;;;;;;;5039604;28;20079;-69
2023/01/27 12:48:08;;;;;;;23.92;10.88;;;;;;;;;;5039831;28;20207;-69
2023/01/27 12:50:39;;;;;;;23.25;9.95;;;;;;;;;;5039383;28;20156;-70
2023/01/27 12:53:13;;;;;;;25.65;11.73;;;;;;;;;;5040206;28;20156;-69
2023/01/27 12:55:41;;;;;;;30.50;12.27;;;;;;;;;;5041018;28;20651;-69
2023/01/27 12:58:33;;;;;;;27.08;12.25;;;;;;;;;;5041015;28;20117;-69
2023/01/27 13:01:00;;;;;;;;;;;;;;;;;;5038352;28;20064;-69
2023/01/27 13:03:27;;;;;;;23.00;9.85;;;;;;;;;;5038936;28;20035;-69
2023/01/27 13:05:59;;;;;;;28.10;11.38;;;;;;;;;;5040189;28;20044;-69
2023/01/27 13:08:27;;;;;;;21.92;9.18;;;;;;;;;;5040924;28;20996;-69
2023/01/27 13:10:57;;;;;;;18.98;9.48;;;;;;;;;;5037318;28;20083;-69
2023/01/27 13:13:25;;;;;;;23.02;11.20;;;;;;;;;;5032543;28;20172;-69
2023/01/27 13:16:24;;;;;;;21.50;9.45;;;;;;;;;;5034541;28;20136;-69
2023/01/27 13:18:58;;;;;;;19.83;9.05;;;;;;;;;;5036692;28;20588;-72
2023/01/27 13:21:33;;;;;;;15.15;7.03;;;;;;;;;;5035305;28;20040;-70
2023/01/27 13:24:04;;;;;;;20.20;10.18;;;;;;;;;;5037056;28;20120;-69
2023/01/27 13:26:33;;;;;;;20.08;8.50;;;;;;;;;;5034289;28;20884;-69
2023/01/27 13:29:07;;;;;;;18.27;7.13;;;;;;;;;;5037821;28;20052;-68
2023/01/27 13:32:02;;;;;;;34.85;12.10;;;;;;;;;;5036133;28;20444;-71
2023/01/27 13:34:36;;;;;;;35.67;13.35;;;;;;;;;;5024841;28;20102;-68
2023/01/27 13:37:17;;;;;;;30.85;10.18;;;;;;;;;;5033371;28;20124;-69
2023/01/27 13:40:13;;;;;;;29.33;11.77;;;;;;;;;;5038043;28;20175;-70
2023/01/27 13:42:46;;;;;;;31.55;11.65;;;;;;;;;;5036856;28;20939;-69
2023/01/27 13:45:22;;;;;;;39.17;11.88;;;;;;;;;;5021116;28;20049;-69
2023/01/27 13:48:02;;;;;;;24.15;10.48;;;;;;;;;;5034875;28;20249;-70
2023/01/27 13:51:03;;;;;;;28.02;12.25;;;;;;;;;;5038015;28;20076;-69
2023/01/27 13:53:28;;;;;;;31.77;11.25;;;;;;;;;;5016021;28;20051;-70
2023/01/27 13:56:14;;;;;;;25.25;10.88;;;;;;;;;;5037439;28;20351;-71
2023/01/27 13:58:55;;;;;;;18.25;7.75;;;;;;;;;;5037289;28;20060;-69
2023/01/27 14:01:37;;;;;;;20.58;8.32;;;;;;;;;;5037590;28;20628;-72
2023/01/27 14:04:21;;;;;;;20.83;9.02;;;;;;;;;;5037666;28;20127;-69
2023/01/27 14:07:20;;;;;;;21.50;9.63;;;;;;;;;;5038136;28;20053;-69
2023/01/27 14:10:15;;;;;;;15.63;7.32;;;;;;;;;;5029023;28;20067;-68
2023/01/27 14:13:18;;;;;;;20.65;8.13;;;;;;;;;;5033555;28;20047;-70
2023/01/27 14:16:06;;;;;;;18.13;8.15;;;;;;;;;;5037934;28;20049;-70
2023/01/27 14:18:38;;;;;;;19.80;7.30;;;;;;;;;;5033799;28;20529;-71
2023/01/27 14:21:39;;;;;;;20.38;8.13;;;;;;;;;;5034091;28;20052;-69
2023/01/27 14:24:28;;;;;;;20.73;7.78;;;;;;;;;;5037628;28;20040;-70
2023/01/27 14:27:04;;;;;;;17.55;8.02;;;;;;;;;;5036692;28;20041;-69
2023/01/27 14:29:43;;;;;;;22.05;8.73;;;;;;;;;;5037751;28;20048;-69
2023/01/27 14:32:17;;;;;;;21.15;8.75;;;;;;;;;;5036225;28;20041;-69
2023/01/27 14:35:13;;;;;;;16.58;8.63;;;;;;;;;;5035060;28;20052;-72
2023/01/27 14:37:57;;;;;;;17.23;8.38;;;;;;;;;;5036736;28;20040;-69
2023/01/27 14:40:29;;;;;;;18.05;8.40;;;;;;;;;;5035189;28;20049;-69
2023/01/27 14:42:59;;;;;;;20.02;8.63;;;;;;;;;;5034922;28;20052;-69
2023/01/27 14:45:32;;;;;;;17.02;7.97;;;;;;;;;;5037163;28;20045;-69
2023/01/27 14:48:12;;;;;;;19.58;9.00;;;;;;;;;;5036186;28;20879;-69
2023/01/27 14:51:00;;;;;;;20.80;9.27;;;;;;;;;;5035514;28;20139;-70
2023/01/27 14:53:55;;;;;;;25.33;10.45;;;;;;;;;;5036786;28;20052;-69
2023/01/27 14:56:58;;;;;;;24.38;10.27;;;;;;;;;;5035603;28;20055;-69
2023/01/27 14:59:51;;;;;;;70.38;25.42;;;;;;;;;;5035799;28;20056;-69
2023/01/27 15:02:40;;;;;;;36.70;14.07;;;;;;;;;;5036844;28;20053;-69
2023/01/27 15:05:06;;;;;;;21.75;9.73;;;;;;;;;;5027534;28;20490;-69
2023/01/27 15:07:43;;;;;;;21.50;9.32;;;;;;;;;;5037734;28;20037;-68
2023/01/27 15:10:25;;;;;;;26.88;12.07;;;;;;;;;;5037120;28;20053;-68
2023/01/27 15:13:31;;;;;;;27.77;11.18;;;;;;;;;;5035478;28;20055;-68
2023/01/27 15:16:33;;;;;;;29.02;11.57;;;;;;;;;;5051286;28;20057;-69
2023/01/27 15:19:21;;;;;;;24.02;10.65;;;;;;;;;;5034190;28;20045;-69
2023/01/27 15:22:16;;;;;;;27.92;10.25;;;;;;;;;;5036897;28;20111;-68
2023/01/27 15:25:15;;;;;;;19.20;9.50;;;;;;;;;;5037264;28;20542;-69
2023/01/27 15:27:41;;;;;;;20.00;8.98;;;;;;;;;;5038177;28;20041;-69